»·PEaware :: AAL695 KPHX-KLAX

AAL695 :: KPHX-KLAX

FLIGHT INFORMATION

Flight Status: Arrived
Operator:
American Airlines
More flights by this operator :: More flights under this callsign
Pilot: Jac C. (16067)
Aircraft: AIRBUS A320
(A320)
More flights by this aircraft type
Origin: KPHX Phoenix Sky Harbor Intl
United States
Destination: KLAX Los Angeles Intl
United States
More flights between these airports :: More routes between these airports
Route: +IZZZO6 MESSI ESTWD HLYWD1
File this flight plan on PilotEdge
Remarks:
Altitude:
(Current/Filed)
34,000ft
Speed:
(Current/Filed)
442kts
Departed: 30-Mar-18 04:31 PM
Arrived: 30-Mar-18 05:29 PM
Distance/Time
Traveled:
321nm/0:58
Distance/Time
To Go:
Arrived

Flight Plot

Page will automatically refresh every two minutes.

Flight plan parsing failed; only flown route is shown


Map Options




Map Legend


Flown Route
Filed Route
Departure Airport
Arrival Airport
Navaid (VOR, NDB)
Fix

Horizontal Profiles

Position Reports

Time Latitude Longitude Heading Altitude Ground
Speed
30-Mar-18 16:02 33.438343 -111.999550 168 1118ft 0kts
30-Mar-18 16:03 33.438343 -111.999550 168 1118ft 0kts
30-Mar-18 16:04 33.438343 -111.999550 168 1118ft 0kts
30-Mar-18 16:05 33.438343 -111.999550 168 1118ft 0kts
30-Mar-18 16:06 33.438343 -111.999550 168 1118ft 0kts
30-Mar-18 16:07 33.438343 -111.999550 168 1118ft 0kts
30-Mar-18 16:08 33.438343 -111.999550 168 1118ft 0kts
30-Mar-18 16:09 33.438343 -111.999550 168 1118ft 0kts
30-Mar-18 16:10 33.438343 -111.999550 168 1118ft 0kts
30-Mar-18 16:11 33.438343 -111.999550 168 1118ft 0kts
30-Mar-18 16:12 33.438343 -111.999550 168 1118ft 0kts
30-Mar-18 16:13 33.438343 -111.999550 168 1118ft 0kts
30-Mar-18 16:14 33.438343 -111.999550 168 1118ft 0kts
30-Mar-18 16:15 33.438343 -111.999550 168 1118ft 0kts
30-Mar-18 16:16 33.438343 -111.999550 168 1118ft 0kts
30-Mar-18 16:17 33.438343 -111.999550 168 1118ft 0kts
30-Mar-18 16:18 33.438343 -111.999550 168 1118ft 0kts
30-Mar-18 16:19 33.438343 -111.999550 168 1118ft 0kts
30-Mar-18 16:20 33.438704 -111.999641 168 1118ft 2kts
30-Mar-18 16:21 33.439062 -111.999754 95 1118ft 0kts
30-Mar-18 16:22 33.439059 -111.999825 89 1118ft 0kts
30-Mar-18 16:23 33.439059 -111.999825 89 1118ft 0kts
30-Mar-18 16:24 33.439059 -111.999825 89 1118ft 0kts
30-Mar-18 16:25 33.439059 -111.999825 89 1118ft 0kts
30-Mar-18 16:26 33.439436 -111.998350 20 1118ft 11kts
30-Mar-18 16:27 33.439741 -111.995487 89 1118ft 8kts
30-Mar-18 16:28 33.439762 -111.991856 90 1118ft 16kts
30-Mar-18 16:29 33.440817 -111.992132 273 1118ft 12kts
30-Mar-18 16:30 33.440892 -112.028939 269 2207ft 175kts
30-Mar-18 16:31 33.442066 -112.090297 271 4679ft 214kts
30-Mar-18 16:32 33.443214 -112.172980 272 6739ft 277kts
30-Mar-18 16:33 33.445003 -112.266738 272 9767ft 290kts
30-Mar-18 16:34 33.446778 -112.370460 272 11514ft 343kts
30-Mar-18 16:35 33.448562 -112.487641 273 13985ft 357kts
30-Mar-18 16:36 33.450266 -112.607689 273 16330ft 367kts
30-Mar-18 16:37 33.451873 -112.727990 273 18425ft 376kts
30-Mar-18 16:38 33.470166 -112.849616 294 20357ft 378kts
30-Mar-18 16:39 33.511257 -112.966806 294 22161ft 385kts
30-Mar-18 16:40 33.552835 -113.086000 294 23762ft 392kts
30-Mar-18 16:41 33.594991 -113.207266 294 25206ft 399kts
30-Mar-18 16:42 33.637731 -113.330677 294 26519ft 405kts
30-Mar-18 16:43 33.681145 -113.456518 294 27721ft 411kts
30-Mar-18 16:44 33.724826 -113.583640 294 28808ft 417kts
30-Mar-18 16:45 33.768899 -113.712418 294 29844ft 421kts
30-Mar-18 16:46 33.812813 -113.841286 294 31247ft 414kts
30-Mar-18 16:47 33.856030 -113.968459 294 32482ft 410kts
30-Mar-18 16:48 33.898726 -114.094899 292 33598ft 406kts
30-Mar-18 16:49 33.924543 -114.227500 285 34114ft 406kts
30-Mar-18 16:50 33.947055 -114.360476 285 34116ft 407kts
30-Mar-18 16:51 33.969510 -114.494063 283 34091ft 406kts
30-Mar-18 16:52 33.991702 -114.626993 283 34084ft 405kts
30-Mar-18 16:53 34.013438 -114.758098 283 34085ft 406kts
30-Mar-18 16:54 34.035367 -114.891302 283 34095ft 407kts
30-Mar-18 16:55 34.057203 -115.024889 282 34096ft 407kts
30-Mar-18 16:56 34.078539 -115.155945 281 34077ft 408kts
30-Mar-18 16:57 34.100230 -115.290134 281 34124ft 410kts
30-Mar-18 16:58 34.121745 -115.424207 281 34221ft 412kts
30-Mar-18 16:59 34.143307 -115.559656 281 34239ft 412kts
30-Mar-18 17:00 34.161897 -115.694665 271 34233ft 413kts
30-Mar-18 17:01 34.151426 -115.818638 264 34231ft 414kts
30-Mar-18 17:02 34.138910 -115.947222 264 34217ft 413kts
30-Mar-18 17:03 34.125512 -116.084112 264 34128ft 409kts
30-Mar-18 17:04 34.112259 -116.218030 264 32358ft 396kts
30-Mar-18 17:05 34.099027 -116.348034 263 30482ft 386kts
30-Mar-18 17:06 34.086029 -116.469061 263 28721ft 376kts
30-Mar-18 17:07 34.072741 -116.591970 263 26932ft 366kts
30-Mar-18 17:08 34.062354 -116.704232 264 25302ft 356kts
30-Mar-18 17:09 34.051666 -116.818988 263 23589ft 347kts
30-Mar-18 17:10 34.039450 -116.932192 261 21888ft 338kts
30-Mar-18 17:11 34.025318 -117.041366 263 20212ft 332kts
30-Mar-18 17:12 34.012604 -117.149308 264 18545ft 326kts
30-Mar-18 17:13 33.999915 -117.255871 263 16876ft 323kts
30-Mar-18 17:14 33.987407 -117.361126 263 15244ft 319kts
30-Mar-18 17:15 33.975100 -117.465664 263 13612ft 315kts
30-Mar-18 17:16 33.986502 -117.567646 283 11991ft 309kts
30-Mar-18 17:17 34.003710 -117.664995 282 10477ft 304kts
30-Mar-18 17:18 33.999120 -117.762549 264 9145ft 294kts
30-Mar-18 17:19 33.989725 -117.858504 263 7761ft 287kts
30-Mar-18 17:20 33.980766 -117.950129 263 6436ft 279kts
30-Mar-18 17:21 33.973590 -118.022751 263 5584ft 270kts
30-Mar-18 17:22 33.966012 -118.111196 262 4470ft 258kts
30-Mar-18 17:23 33.956130 -118.202514 262 3047ft 223kts
30-Mar-18 17:24 33.948873 -118.272162 262 1950ft 190kts
30-Mar-18 17:25 33.943328 -118.325438 262 1054ft 136kts
30-Mar-18 17:26 33.939329 -118.362388 261 573ft 131kts
30-Mar-18 17:27 33.935248 -118.403176 266 114ft 78kts
30-Mar-18 17:28 33.935594 -118.412175 308 114ft 3kts
30-Mar-18 17:29 33.937510 -118.412389 73 114ft 12kts
30-Mar-18 17:30 33.937604 -118.411531 81 114ft 0kts
30-Mar-18 17:31 33.937831 -118.409213 83 114ft 18kts
30-Mar-18 17:32 33.939192 -118.405358 353 114ft 10kts
30-Mar-18 17:33 33.941383 -118.405762 306 114ft 4kts

Navigation Log

Ident Type
Flight plan parsing failed, navigation log unavailable